632  
UXUS97 KREV 221447  
SRGREV  
 
SOARING FORECAST  
NATIONAL WEATHER SERVICE - RENO NV  
700 AM PDT SAT JUL 22 2017  
 
THIS SOARING FORECAST IS FOR THE EASTERN SIERRA AND WESTERN NEVADA  
WITH SPECIFIC INDICES FOR THE GREATER RENO AREA.  
 
THIS FORECAST IS PREPARED DAILY BY 700 AM AND IS NOT UPDATED.  
 
FOR CURRENT FLIGHT CONDITIONS...FORECASTS...AND ADVISORIES...ACCESS  
YOUR LOCAL BRIEFING OUTLET OR FLIGHT SERVICE STATION.  
 
*******************************************************************  
FORECASTED LOCAL INDICES FOR RENO: TODAY YESTERDAY  
FORECASTED MAX TEMP AT RENO (DEG F)..... 100 96  
FORECASTED TRIGGER TEMPERATURE (DEG F).. 83 78  
EXCEEDED YESTERDAY BY 1055 AM PDT  
FORECASTED MAXIMUM ALTITUDE (FT MSL).... 17300 16200  
FORECASTED SOARING INDEX (FPM).......... 1119 906  
FORECASTED K-INDEX.........VALID 18Z.... 10 -5  
FORECASTED K-INDEX.........VALID 00Z.... 14 0  
FORECASTED LIFTED INDEX....VALID 18Z.... 5 8  
FORECASTED LIFTED INDEX....VALID 00Z.... 4 5  
 
AFTERNOON WINDS ALOFT FORECAST  
MSL (FT) WIND/TEMP  
9000 0405/+20  
10000 9903/+17  
12000 9900/+11  
14000 9903/+05  
16000 9906/+00  
18000 2115/-05  
24000 2415/-19  
30000 2517/-35  
34000 2523/-44  
39000 2534/-52  
 
SLIDE MOUNTAIN DATA:  
DATE TIME TEMP DEWPT RH WIND (MPH)  
(F) (F) | DIR SPEED GUST  
2017-07-22 05:20 56 30 24 | 015 18 31  
2017-07-22 05:00 57 30 24 | 014 20 29  
2017-07-22 04:50 57 31 25 | 013 17 29  
2017-07-22 04:30 57 31 25 | 019 16 29  
 
RENO TAF FORECAST:  
KRNO 221120Z 2212/2312 VRB05KT P6SM SKC  
FM222300 33008KT P6SM SKC  
FM230400 VRB03KT P6SM SKC  
 
CARSON CITY TAF FORECAST:  
KCXP 221120Z 2212/2312 VRB03KT P6SM SKC  
FM222100 31008G16KT P6SM SKC  
FM230500 VRB04KT P6SM SKC  
 
OUTLOOK FOR THE RENO-CARSON CITY-MINDEN AREA:   
SUNDAY
 
SUNNY IN THE MORNING, THEN PARTLY CLOUDY WITH ISOLATED  
SHOWERS AND THUNDERSTORMS IN THE AFTERNOON. HIGHS 97 TO 102.  
LIGHT WINDS.  
 
SUNRISE AND SUNSET  
JULY 22 2017..........SUNRISE 550 AM PDT SUNSET 820 PM PDT  
JULY 23 2017..........SUNRISE 551 AM PDT SUNSET 820 PM PDT  
 
CLICK HERE TO GO TO PREVIOUS BULLETINS.

The Nexlab NV Page
The Nexlab CA Page Main Text Page